createdAt,value
2018-10-02T00:01:08.266Z,7.10
2018-10-02T00:06:10.443Z,7.00
2018-10-02T00:11:18.350Z,6.90
2018-10-02T00:16:20.482Z,6.80
2018-10-02T00:21:22.642Z,6.70
2018-10-02T00:26:24.754Z,6.70
2018-10-02T00:31:26.907Z,6.50
2018-10-02T00:36:29.035Z,6.40
2018-10-02T00:41:31.161Z,6.30
2018-10-02T00:46:33.281Z,6.20
2018-10-02T00:51:35.431Z,6.20
2018-10-02T00:56:37.592Z,6.10
2018-10-02T01:01:39.721Z,6.20
2018-10-02T01:06:41.862Z,6.10
2018-10-02T01:11:44.020Z,6.10
2018-10-02T01:16:46.161Z,6.10
2018-10-02T01:21:48.313Z,6.20
2018-10-02T01:26:50.430Z,6.10
2018-10-02T01:31:52.589Z,6.10
2018-10-02T01:36:54.725Z,6.20
2018-10-02T01:41:56.858Z,6.20
2018-10-02T01:47:06.077Z,6.00
2018-10-02T01:52:08.430Z,5.90
2018-10-02T01:57:17.398Z,5.80
2018-10-02T02:02:19.550Z,5.90
2018-10-02T02:07:21.666Z,5.70
2018-10-02T02:12:30.894Z,5.60
2018-10-02T02:17:33.339Z,5.50
2018-10-02T02:22:35.457Z,5.50
2018-10-02T02:27:37.634Z,5.50
2018-10-02T02:32:39.782Z,5.60
2018-10-02T02:37:41.926Z,5.60
2018-10-02T02:42:44.070Z,5.50
2018-10-02T02:47:52.021Z,5.10
2018-10-02T02:52:57.384Z,5.20
2018-10-02T02:57:59.518Z,5.20
2018-10-02T03:03:01.650Z,5.20
2018-10-02T03:08:03.881Z,5.10
2018-10-02T03:13:06.033Z,5.10
2018-10-02T03:18:08.194Z,5.00
2018-10-02T03:23:10.318Z,4.90
2018-10-02T03:28:12.446Z,4.90
2018-10-02T03:33:14.582Z,4.90
2018-10-02T03:38:16.726Z,4.90
2018-10-02T03:43:18.861Z,4.90
2018-10-02T03:48:20.990Z,5.10
2018-10-02T03:53:23.126Z,5.30
2018-10-02T03:58:25.261Z,5.30
2018-10-02T04:03:27.488Z,5.20
2018-10-02T04:08:29.525Z,5.10
2018-10-02T04:13:31.646Z,5.00
2018-10-02T04:18:33.810Z,5.00
2018-10-02T04:23:39.646Z,5.30
2018-10-02T04:28:41.774Z,5.30
2018-10-02T04:33:43.981Z,5.30
2018-10-02T04:38:46.034Z,5.40
2018-10-02T04:43:48.197Z,5.40
2018-10-02T04:48:50.334Z,5.50
2018-10-02T04:53:52.474Z,5.70
2018-10-02T04:58:54.605Z,5.70
2018-10-02T05:03:56.729Z,5.70
2018-10-02T05:08:58.870Z,5.70
2018-10-02T05:14:01.017Z,5.70
2018-10-02T05:19:03.174Z,5.70
2018-10-02T05:24:05.338Z,5.80
2018-10-02T05:29:07.468Z,5.90
2018-10-02T05:34:09.602Z,5.90
2018-10-02T05:39:11.742Z,6.00
2018-10-02T05:44:14.130Z,6.10
2018-10-02T05:49:16.262Z,6.20
2018-10-02T05:54:18.390Z,6.30
2018-10-02T05:59:20.574Z,6.30
2018-10-02T06:04:22.697Z,6.30
2018-10-02T06:09:24.842Z,6.40
2018-10-02T06:14:26.985Z,6.40
2018-10-02T06:19:29.156Z,6.50
2018-10-02T06:24:31.404Z,6.50
2018-10-02T06:29:33.990Z,6.50
2018-10-02T06:34:36.114Z,6.60
2018-10-02T06:39:38.246Z,6.70
2018-10-02T06:44:40.488Z,6.90
2018-10-02T06:49:42.521Z,7.00
2018-10-02T06:54:44.658Z,7.10
2018-10-02T06:59:46.805Z,7.20
2018-10-02T07:04:48.950Z,7.40
2018-10-02T07:09:51.094Z,7.50
2018-10-02T07:14:53.244Z,7.50
2018-10-02T07:19:55.382Z,7.50
2018-10-02T07:24:57.506Z,7.50
2018-10-02T07:29:59.657Z,7.50
2018-10-02T07:35:01.806Z,7.60
2018-10-02T07:40:04.036Z,7.70
2018-10-02T07:45:06.271Z,7.90
2018-10-02T07:50:08.362Z,8.00
2018-10-02T07:55:10.510Z,8.10
2018-10-02T08:00:12.663Z,8.10
2018-10-02T08:05:14.886Z,8.00
2018-10-02T08:10:17.058Z,7.90
2018-10-02T08:15:19.202Z,8.00
2018-10-02T08:20:21.360Z,8.20
2018-10-02T08:25:23.491Z,8.50
2018-10-02T08:30:25.709Z,8.80
2018-10-02T08:35:27.837Z,8.70
2018-10-02T08:40:29.962Z,8.40
2018-10-02T08:45:32.094Z,8.50
2018-10-02T08:50:34.452Z,8.40
2018-10-02T08:55:36.573Z,8.50
2018-10-02T09:00:38.775Z,8.30
2018-10-02T09:05:40.853Z,8.30
2018-10-02T09:10:42.994Z,8.40
2018-10-02T09:15:45.270Z,8.60
2018-10-02T09:20:47.288Z,8.80
2018-10-02T09:25:49.436Z,8.70
2018-10-02T09:30:57.579Z,8.70
2018-10-02T09:36:05.413Z,8.60
2018-10-02T09:41:13.378Z,8.80
2018-10-02T09:46:15.498Z,8.90
2018-10-02T09:51:17.659Z,9.00
2018-10-02T09:56:19.788Z,9.20
2018-10-02T10:01:27.627Z,9.50
2018-10-02T10:06:29.771Z,9.70
2018-10-02T10:11:31.921Z,9.80
2018-10-02T10:16:34.131Z,9.70
2018-10-02T10:21:36.593Z,9.50
2018-10-02T10:26:38.766Z,9.40
2018-10-02T10:31:40.909Z,9.50
2018-10-02T10:36:43.061Z,9.40
2018-10-02T10:41:45.198Z,9.70
2018-10-02T10:46:47.390Z,10.00
2018-10-02T10:51:49.506Z,10.10
2018-10-02T10:56:51.658Z,9.80
2018-10-02T11:01:53.798Z,9.80
2018-10-02T11:06:55.959Z,9.60
2018-10-02T11:11:58.089Z,9.50
2018-10-02T11:17:00.254Z,9.50
2018-10-02T11:22:02.382Z,9.50
2018-10-02T11:27:04.545Z,9.50
2018-10-02T11:32:06.690Z,9.60
2018-10-02T11:37:08.877Z,9.60
2018-10-02T11:42:10.991Z,9.60
2018-10-02T11:47:13.150Z,9.60
2018-10-02T11:52:15.290Z,9.30
2018-10-02T11:57:17.434Z,9.30
2018-10-02T12:02:19.608Z,9.20
2018-10-02T12:07:21.747Z,9.30
2018-10-02T12:12:23.875Z,9.20
2018-10-02T12:17:26.005Z,9.10
2018-10-02T12:22:28.138Z,9.00
2018-10-02T12:27:30.266Z,8.90
2018-10-02T12:32:32.412Z,8.90
2018-10-02T12:37:34.537Z,8.90
2018-10-02T12:42:36.666Z,8.90
2018-10-02T12:47:38.798Z,8.80
2018-10-02T12:52:40.985Z,8.70
2018-10-02T12:57:43.054Z,8.60
2018-10-02T13:02:45.190Z,8.60
2018-10-02T13:07:47.322Z,8.60
2018-10-02T13:12:49.478Z,8.50
2018-10-02T13:17:51.626Z,8.30
2018-10-02T13:22:53.766Z,8.30
2018-10-02T13:27:55.950Z,8.50
2018-10-02T13:32:58.112Z,8.40
2018-10-02T13:38:00.295Z,8.40
2018-10-02T13:43:02.428Z,8.50
2018-10-02T13:48:04.662Z,8.50
2018-10-02T13:53:06.830Z,8.40
2018-10-02T13:58:09.010Z,8.40
2018-10-02T14:03:11.186Z,8.50
2018-10-02T14:08:13.401Z,8.40
2018-10-02T14:13:15.532Z,8.30
2018-10-02T14:18:17.690Z,8.30
2018-10-02T14:23:19.950Z,8.30
2018-10-02T14:28:22.106Z,8.30
2018-10-02T14:33:24.242Z,8.30
2018-10-02T14:38:26.386Z,8.40
2018-10-02T14:43:28.650Z,8.40
2018-10-02T14:48:30.914Z,8.50
2018-10-02T14:53:33.134Z,8.50
2018-10-02T14:58:35.657Z,8.60
2018-10-02T15:03:37.968Z,8.70
2018-10-02T15:08:40.199Z,8.70
2018-10-02T15:13:42.441Z,8.70
2018-10-02T15:18:44.671Z,8.80
2018-10-02T15:23:46.838Z,8.80
2018-10-02T15:28:48.998Z,8.90
2018-10-02T15:33:51.246Z,8.90
2018-10-02T15:38:53.470Z,8.80
2018-10-02T15:43:55.787Z,8.80
2018-10-02T15:48:57.997Z,8.80
2018-10-02T15:54:00.270Z,8.90
2018-10-02T15:59:02.462Z,8.90
2018-10-02T16:04:04.670Z,8.90
2018-10-02T16:09:06.846Z,9.00
2018-10-02T16:14:09.050Z,9.10
2018-10-02T16:19:11.206Z,9.10
2018-10-02T16:24:13.371Z,9.20
2018-10-02T16:29:15.534Z,9.20
2018-10-02T16:34:20.383Z,9.30
2018-10-02T16:39:24.997Z,9.30
2018-10-02T16:44:27.157Z,9.40
2018-10-02T16:49:29.400Z,9.40
2018-10-02T16:54:31.627Z,9.40
2018-10-02T16:59:33.730Z,9.50
2018-10-02T17:04:35.878Z,9.60
2018-10-02T17:09:38.092Z,9.60
2018-10-02T17:14:40.222Z,9.70
2018-10-02T17:19:42.425Z,9.70
2018-10-02T17:24:44.583Z,9.80
2018-10-02T17:29:46.740Z,9.80
2018-10-02T17:34:48.886Z,9.90
2018-10-02T17:39:51.121Z,9.80
2018-10-02T17:44:53.289Z,9.90
2018-10-02T17:49:55.465Z,10.00
2018-10-02T17:54:57.711Z,10.00
2018-10-02T17:59:59.851Z,10.00
2018-10-02T18:05:02.251Z,10.00
2018-10-02T18:10:04.510Z,10.00
2018-10-02T18:15:06.697Z,10.10
2018-10-02T18:20:08.891Z,10.10
2018-10-02T18:25:11.186Z,10.10
2018-10-02T18:30:13.551Z,10.10
2018-10-02T18:35:15.798Z,10.20
2018-10-02T18:40:18.028Z,10.20
2018-10-02T18:45:20.195Z,10.20
2018-10-02T18:50:22.338Z,10.20
2018-10-02T18:55:24.566Z,10.30
2018-10-02T19:00:26.819Z,10.30
2018-10-02T19:05:29.165Z,10.30
2018-10-02T19:10:31.314Z,10.40
2018-10-02T19:15:39.315Z,10.40
2018-10-02T19:20:48.857Z,10.50
2018-10-02T19:25:56.680Z,10.50
2018-10-02T19:31:04.526Z,10.50
2018-10-02T19:36:06.724Z,10.50
2018-10-02T19:41:08.903Z,10.60
2018-10-02T19:46:16.866Z,10.60
2018-10-02T19:51:24.811Z,10.60
2018-10-02T19:56:26.986Z,10.70
2018-10-02T20:01:29.121Z,10.60
2018-10-02T20:06:31.314Z,10.70
2018-10-02T20:11:33.462Z,10.70
2018-10-02T20:16:35.654Z,10.70
2018-10-02T20:21:37.957Z,10.80
2018-10-02T20:26:40.059Z,10.80
2018-10-02T20:31:43.962Z,10.80
2018-10-02T20:36:46.277Z,10.80
2018-10-02T20:41:48.382Z,10.80
2018-10-02T20:46:50.547Z,10.80
2018-10-02T20:51:52.748Z,10.80
2018-10-02T20:56:55.141Z,10.90
2018-10-02T21:01:57.338Z,10.80
2018-10-02T21:06:59.514Z,10.90
2018-10-02T21:12:01.653Z,10.90
2018-10-02T21:17:03.790Z,10.90
2018-10-02T21:22:05.926Z,10.90
2018-10-02T21:27:08.096Z,11.00
2018-10-02T21:32:10.266Z,11.00
2018-10-02T21:37:12.431Z,11.00
2018-10-02T21:42:14.582Z,11.00
2018-10-02T21:47:16.734Z,11.00
2018-10-02T21:52:19.701Z,11.00
2018-10-02T21:57:21.841Z,10.90
2018-10-02T22:02:24.026Z,11.00
2018-10-02T22:07:26.216Z,11.00
2018-10-02T22:12:28.358Z,11.00
2018-10-02T22:17:30.489Z,11.00
2018-10-02T22:22:32.728Z,10.90
2018-10-02T22:27:34.874Z,10.90
2018-10-02T22:32:37.086Z,10.90
2018-10-02T22:37:39.397Z,10.90
2018-10-02T22:42:41.554Z,11.00
2018-10-02T22:47:43.733Z,11.00
2018-10-02T22:52:45.869Z,11.00
2018-10-02T22:57:48.018Z,11.00
2018-10-02T23:02:50.235Z,11.00
2018-10-02T23:07:52.386Z,11.00
2018-10-02T23:12:54.550Z,11.00
2018-10-02T23:17:56.693Z,10.90
2018-10-02T23:22:58.834Z,11.00
2018-10-02T23:28:00.990Z,10.90
2018-10-02T23:33:03.352Z,11.00
2018-10-02T23:38:05.543Z,11.00
2018-10-02T23:43:08.170Z,10.90
2018-10-02T23:48:10.314Z,10.90
2018-10-02T23:53:12.466Z,10.90
2018-10-02T23:58:14.601Z,10.90
